Time;durP1;ratioP1;P1;durP2;ratioP2;P2;SDS_P1;SDS_P2;PMS_P1;PMS_P2;Temp;Humidity;BMP_temperature;BMP_pressure;BME280_temperature;BME280_humidity;BME280_pressure;Samples;Min_cycle;Max_cycle;Signal;HPM_P1;HPM_P2
2021/05/19 00:01:50;;;;;;;100.07;94.77;;;8.50;99.90;;;;;;6247363;23;20945;-82
2021/05/19 00:04:17;;;;;;;107.93;102.13;;;8.50;99.90;;;;;;6256100;23;20458;-82
2021/05/19 00:06:45;;;;;;;105.27;99.40;;;8.60;99.90;;;;;;6257559;23;20468;-82
2021/05/19 00:09:13;;;;;;;111.80;105.90;;;8.50;99.90;;;;;;6257166;23;20441;-81
2021/05/19 00:11:45;;;;;;;116.07;109.57;;;8.60;99.90;;;;;;6247762;23;20439;-81
2021/05/19 00:14:15;;;;;;;122.37;115.67;;;8.60;99.90;;;;;;6247175;23;20395;-81
2021/05/19 00:16:41;;;;;;;124.13;117.37;;;8.80;99.90;;;;;;6257791;23;20399;-82
2021/05/19 00:19:08;;;;;;;126.57;118.97;;;8.70;99.90;;;;;;6246197;23;20411;-82
2021/05/19 00:21:34;;;;;;;127.63;120.47;;;8.70;99.90;;;;;;6257407;23;20780;-81
2021/05/19 00:24:03;;;;;;;134.03;126.27;;;8.70;99.90;;;;;;6247510;23;20406;-82
2021/05/19 00:26:29;;;;;;;135.27;127.97;;;8.60;99.90;;;;;;6257219;23;20439;-82
2021/05/19 00:28:56;;;;;;;137.00;129.13;;;8.70;99.90;;;;;;6257182;23;20433;-81
2021/05/19 00:31:23;;;;;;;137.73;129.87;;;8.70;99.90;;;;;;6246966;23;20878;-82
2021/05/19 00:33:51;;;;;;;136.77;129.03;;;8.70;99.90;;;;;;6247414;23;20395;-82
2021/05/19 00:36:19;;;;;;;133.63;126.00;;;8.70;99.90;;;;;;6246393;23;20406;-81
2021/05/19 00:38:46;;;;;;;132.73;124.87;;;8.70;99.90;;;;;;6247370;23;20399;-81
2021/05/19 00:41:13;;;;;;;136.57;128.97;;;8.60;99.90;;;;;;6246972;23;20422;-81
2021/05/19 00:43:40;;;;;;;139.03;131.17;;;8.70;99.90;;;;;;6247208;23;20439;-82
2021/05/19 00:46:08;;;;;;;141.87;134.20;;;8.60;99.90;;;;;;6257483;23;20557;-82
2021/05/19 00:48:35;;;;;;;128.57;121.80;;;8.80;99.90;;;;;;6256863;22;20433;-81
2021/05/19 00:51:05;;;;;;;137.27;129.47;;;8.70;99.90;;;;;;6255827;23;20438;-82
2021/05/19 00:53:31;;;;;;;140.13;132.10;;;8.60;99.90;;;;;;6247383;23;20400;-81
2021/05/19 00:55:58;;;;;;;138.50;131.00;;;8.60;99.90;;;;;;6246760;23;20487;-81
2021/05/19 00:58:25;;;;;;;141.50;133.80;;;8.70;99.90;;;;;;6246455;23;20399;-82
2021/05/19 01:00:52;;;;;;;146.23;138.23;;;8.60;99.90;;;;;;6256812;23;20422;-81
2021/05/19 01:03:18;;;;;;;146.00;137.73;;;8.70;99.90;;;;;;6247083;23;20408;-82
2021/05/19 01:05:47;;;;;;;153.50;143.83;;;8.80;99.90;;;;;;6245562;23;20716;-81
2021/05/19 01:11:07;;;;;;;149.07;140.37;;;8.90;99.90;;;;;;6246827;23;20783;-81
2021/05/19 01:13:42;;;;;;;148.10;140.10;;;9.10;99.90;;;;;;6257341;23;20697;-81
2021/05/19 01:16:09;;;;;;;146.80;139.10;;;9.10;99.90;;;;;;6247013;23;20414;-81
2021/05/19 01:18:36;;;;;;;141.60;134.10;;;9.10;99.90;;;;;;6257168;23;20533;-82
2021/05/19 01:21:03;;;;;;;126.37;119.70;;;9.10;99.90;;;;;;6255087;23;20903;-81
2021/05/19 01:23:32;;;;;;;120.80;114.07;;;9.10;99.90;;;;;;6247077;23;20403;-81
2021/05/19 01:26:00;;;;;;;116.50;110.27;;;9.10;99.90;;;;;;6256497;23;20411;-81
2021/05/19 01:28:26;;;;;;;112.00;106.03;;;9.00;99.90;;;;;;6246877;23;20411;-81
2021/05/19 01:30:53;;;;;;;109.67;104.07;;;9.00;99.90;;;;;;6246358;23;20404;-81
2021/05/19 01:33:20;;;;;;;103.87;98.37;;;9.00;99.90;;;;;;6257047;23;20471;-81
2021/05/19 01:35:46;;;;;;;101.57;95.77;;;9.00;99.90;;;;;;6245353;23;20415;-81
2021/05/19 01:38:14;;;;;;;105.27;99.33;;;9.00;99.90;;;;;;6246988;23;20399;-81
2021/05/19 01:40:43;;;;;;;100.17;94.57;;;9.00;99.90;;;;;;6246682;23;20403;-81
2021/05/19 01:43:10;;;;;;;95.03;89.83;;;9.00;99.90;;;;;;6256725;23;20763;-81
2021/05/19 01:45:37;;;;;;;90.73;85.97;;;9.10;99.90;;;;;;6246623;23;20399;-81
2021/05/19 01:48:04;;;;;;;84.17;79.27;;;9.10;99.90;;;;;;6246777;22;20474;-81
2021/05/19 01:50:33;;;;;;;84.53;79.30;;;9.10;99.90;;;;;;6245295;23;20461;-81
2021/05/19 01:53:03;;;;;;;81.47;76.63;;;9.10;99.90;;;;;;6246703;23;20518;-81
2021/05/19 01:55:30;;;;;;;80.67;75.83;;;9.10;99.90;;;;;;6256401;23;20411;-81
2021/05/19 01:57:58;;;;;;;79.00;74.53;;;9.10;99.90;;;;;;6256886;23;20723;-81
2021/05/19 02:00:27;;;;;;;79.70;74.60;;;9.20;99.90;;;;;;6246246;23;20403;-81
2021/05/19 02:02:58;;;;;;;76.37;71.87;;;9.10;99.90;;;;;;6246225;23;20438;-81
2021/05/19 02:05:25;;;;;;;80.07;75.00;;;9.10;99.90;;;;;;6244997;23;20407;-81
2021/05/19 02:07:52;;;;;;;74.40;70.10;;;9.00;99.90;;;;;;6256335;23;20497;-81
2021/05/19 02:10:19;;;;;;;76.03;70.50;;;8.90;99.90;;;;;;6246021;23;20458;-81
2021/05/19 02:12:45;;;;;;;79.00;74.40;;;9.00;99.90;;;;;;6256885;23;20399;-81
2021/05/19 02:15:16;;;;;;;82.83;78.03;;;8.90;99.90;;;;;;6246412;23;20699;-81
2021/05/19 02:17:43;;;;;;;83.27;78.23;;;8.90;99.90;;;;;;6246187;23;20431;-81
2021/05/19 02:20:11;;;;;;;86.87;81.77;;;9.00;99.90;;;;;;6244498;23;20392;-81
2021/05/19 02:22:37;;;;;;;90.10;85.10;;;8.80;99.90;;;;;;6256517;23;20438;-81
2021/05/19 02:25:06;;;;;;;94.23;88.70;;;8.70;99.90;;;;;;6256162;23;20883;-81
2021/05/19 02:27:32;;;;;;;102.13;96.17;;;8.60;99.90;;;;;;6245956;23;20910;-81
2021/05/19 02:29:58;;;;;;;107.17;101.10;;;8.70;99.90;;;;;;6256474;23;20759;-81
2021/05/19 02:32:27;;;;;;;108.07;101.97;;;8.70;99.90;;;;;;6246457;23;20437;-81
2021/05/19 02:34:53;;;;;;;109.47;103.10;;;8.70;99.90;;;;;;6244776;23;20403;-81
2021/05/19 02:37:20;;;;;;;111.00;103.87;;;8.80;99.90;;;;;;6245879;23;20400;-81
2021/05/19 02:39:46;;;;;;;113.50;106.87;;;8.60;99.90;;;;;;6246282;23;20449;-81
2021/05/19 02:42:13;;;;;;;111.13;104.47;;;8.50;99.90;;;;;;6246061;23;20522;-81
2021/05/19 02:44:39;;;;;;;109.67;103.27;;;8.40;99.90;;;;;;6246284;23;20404;-81
2021/05/19 02:47:06;;;;;;;111.17;104.50;;;8.40;99.90;;;;;;6245609;22;20435;-81
2021/05/19 02:49:33;;;;;;;112.07;105.60;;;8.30;99.90;;;;;;6244658;23;20400;-81
2021/05/19 02:52:02;;;;;;;116.47;109.47;;;8.20;99.90;;;;;;6255909;23;20431;-81
2021/05/19 02:54:28;;;;;;;120.70;113.17;;;8.30;99.90;;;;;;6246125;23;20405;-81
2021/05/19 02:56:55;;;;;;;131.37;123.27;;;8.30;99.90;;;;;;6255725;23;20411;-81
2021/05/19 02:59:21;;;;;;;129.17;121.87;;;8.40;99.90;;;;;;6246023;23;20482;-81
2021/05/19 03:01:48;;;;;;;126.50;119.03;;;8.50;99.90;;;;;;6245769;23;20431;-81
2021/05/19 03:04:14;;;;;;;132.53;124.07;;;8.40;99.90;;;;;;6244441;23;20407;-81
2021/05/19 03:06:42;;;;;;;132.30;124.23;;;8.30;99.90;;;;;;6245698;23;20399;-77
2021/05/19 03:09:08;;;;;;;131.77;124.00;;;8.30;99.90;;;;;;6245217;23;20530;-80
2021/05/19 03:11:35;;;;;;;143.00;133.40;;;8.40;99.90;;;;;;6255500;23;20967;-80
2021/05/19 03:14:02;;;;;;;136.37;127.97;;;8.40;99.90;;;;;;6245673;23;20431;-80
2021/05/19 03:16:30;;;;;;;138.40;130.50;;;8.50;99.90;;;;;;6246017;23;20431;-80
2021/05/19 03:18:57;;;;;;;136.67;127.80;;;8.50;99.90;;;;;;6254806;23;20490;-80
2021/05/19 03:21:24;;;;;;;132.97;125.40;;;8.50;99.90;;;;;;6255727;23;20441;-79
2021/05/19 03:23:53;;;;;;;138.07;129.87;;;8.60;99.90;;;;;;6246020;23;20431;-81
2021/05/19 03:26:20;;;;;;;142.00;133.40;;;8.50;99.90;;;;;;6245358;23;20486;-81
2021/05/19 03:28:47;;;;;;;142.50;133.70;;;8.40;99.90;;;;;;6245776;23;20399;-80
2021/05/19 03:31:13;;;;;;;141.70;133.50;;;8.60;99.90;;;;;;6245701;23;20399;-80
2021/05/19 03:33:40;;;;;;;137.17;128.73;;;8.50;99.90;;;;;;6245870;23;20435;-82
2021/05/19 03:36:07;;;;;;;130.93;122.77;;;8.40;99.90;;;;;;6244508;23;20775;-78
2021/05/19 03:38:34;;;;;;;129.80;122.27;;;8.20;99.90;;;;;;6255647;23;20534;-80
2021/05/19 03:41:03;;;;;;;127.80;120.23;;;8.20;99.90;;;;;;6245579;23;20400;-77
2021/05/19 03:43:34;;;;;;;122.70;114.87;;;8.10;99.90;;;;;;6245527;23;20493;-81
2021/05/19 03:46:01;;;;;;;125.40;117.77;;;8.00;99.90;;;;;;6255334;22;20883;-80
2021/05/19 03:48:27;;;;;;;129.37;121.47;;;7.80;99.90;;;;;;6255719;23;20396;-80
2021/05/19 03:50:54;;;;;;;135.20;127.20;;;7.70;99.90;;;;;;6254131;23;20399;-80
2021/05/19 03:53:21;;;;;;;133.80;125.80;;;7.80;99.90;;;;;;6245287;23;20945;-75
2021/05/19 03:55:47;;;;;;;138.67;130.17;;;7.70;99.90;;;;;;6245808;23;20395;-80
2021/05/19 03:58:17;;;;;;;146.97;137.97;;;7.70;99.90;;;;;;6245894;23;20454;-81
2021/05/19 04:00:44;;;;;;;139.67;131.17;;;7.60;99.90;;;;;;6255662;23;20411;-81
2021/05/19 04:03:10;;;;;;;141.57;132.90;;;7.60;99.90;;;;;;6255601;23;20446;-80
2021/05/19 04:05:38;;;;;;;141.23;132.47;;;7.60;99.90;;;;;;6243883;23;20403;-81
2021/05/19 04:08:06;;;;;;;147.67;137.87;;;7.70;99.90;;;;;;6245391;23;20434;-82
2021/05/19 04:10:32;;;;;;;146.87;137.47;;;7.90;99.90;;;;;;6255746;23;20411;-80
2021/05/19 04:13:00;;;;;;;140.20;131.70;;;7.80;99.90;;;;;;6245177;23;20978;-75
2021/05/19 04:15:27;;;;;;;134.40;126.60;;;8.00;99.90;;;;;;6245309;23;20406;-75
2021/05/19 04:17:54;;;;;;;142.43;133.53;;;8.00;99.90;;;;;;6255623;23;20411;-78
2021/05/19 04:20:20;;;;;;;138.17;130.13;;;8.10;99.90;;;;;;6243568;23;20404;-78
2021/05/19 04:22:47;;;;;;;133.20;125.40;;;8.10;99.90;;;;;;6245343;23;20439;-78
2021/05/19 04:25:15;;;;;;;137.93;130.00;;;8.10;99.90;;;;;;6245350;23;21088;-78
2021/05/19 04:27:41;;;;;;;135.00;127.20;;;8.40;99.90;;;;;;6255096;23;20411;-78
2021/05/19 04:30:09;;;;;;;139.77;132.20;;;8.50;99.90;;;;;;6245524;23;20491;-80
2021/05/19 04:32:37;;;;;;;134.97;127.33;;;8.50;99.90;;;;;;6245241;23;20930;-80
2021/05/19 04:35:05;;;;;;;130.07;122.77;;;8.70;99.90;;;;;;6245794;23;20756;-81
2021/05/19 04:37:32;;;;;;;123.47;116.57;;;8.80;99.90;;;;;;6257079;23;20415;-77
2021/05/19 04:40:02;;;;;;;112.57;105.87;;;9.10;99.90;;;;;;6246960;23;20411;-80
2021/05/19 04:42:28;;;;;;;107.90;101.70;;;9.10;99.90;;;;;;6247142;23;20474;-80
2021/05/19 04:44:55;;;;;;;99.77;94.10;;;9.20;99.90;;;;;;6247368;23;20400;-81
2021/05/19 04:47:21;;;;;;;91.87;86.60;;;9.20;99.90;;;;;;6246705;22;20517;-82
2021/05/19 04:49:48;;;;;;;86.97;81.50;;;9.30;99.90;;;;;;6245209;23;20400;-82
2021/05/19 04:52:15;;;;;;;78.77;74.13;;;9.40;99.90;;;;;;6256984;23;20422;-82
2021/05/19 04:54:41;;;;;;;70.43;66.07;;;9.50;99.90;;;;;;6246707;23;20449;-82
2021/05/19 04:57:08;;;;;;;67.10;62.70;;;9.60;99.90;;;;;;6246282;23;20543;-82
2021/05/19 04:59:35;;;;;;;63.97;58.50;;;9.60;99.90;;;;;;6256527;23;20399;-82
2021/05/19 05:02:04;;;;;;;58.87;54.83;;;9.60;99.90;;;;;;6246623;23;20441;-81
2021/05/19 05:04:31;;;;;;;50.07;46.17;;;9.60;99.90;;;;;;6255428;23;20890;-82
2021/05/19 05:07:01;;;;;;;46.83;43.17;;;9.60;99.90;;;;;;6256365;23;20414;-82
2021/05/19 05:09:29;;;;;;;43.20;40.03;;;9.50;99.90;;;;;;6256554;23;20457;-82
2021/05/19 05:11:59;;;;;;;39.40;36.27;;;9.60;99.90;;;;;;6247135;23;20421;-82
2021/05/19 05:14:25;;;;;;;39.40;36.03;;;9.50;99.90;;;;;;6247152;23;20722;-82
2021/05/19 05:16:54;;;;;;;42.13;38.60;;;9.40;99.90;;;;;;6246976;23;20403;-82
2021/05/19 05:19:23;;;;;;;37.90;34.30;;;9.50;99.90;;;;;;6254868;23;20458;-81
2021/05/19 05:21:51;;;;;;;44.83;41.30;;;9.30;99.90;;;;;;6246613;23;20423;-82
2021/05/19 05:24:29;;;;;;;;;;;;;;;;;;;;;
2021/05/19 05:26:56;;;;;;;44.10;40.47;;;9.20;99.90;;;;;;6254133;23;20418;-80
2021/05/19 05:29:25;;;;;;;42.83;39.57;;;9.40;99.90;;;;;;6256658;23;20887;-81
2021/05/19 05:31:53;;;;;;;67.70;63.50;;;9.70;99.90;;;;;;6246263;23;20457;-82
2021/05/19 05:34:26;;;;;;;31.37;28.53;;;10.20;99.90;;;;;;6255384;22;20403;-81
2021/05/19 05:37:04;;;;;;;;;;;;;;;;;;;;;
2021/05/19 05:39:35;;;;;;;20.93;8.27;;;10.80;99.90;;;;;;6257064;23;20688;-83
2021/05/19 05:42:02;;;;;;;25.00;7.40;;;11.00;99.90;;;;;;6256908;23;20419;-82
2021/05/19 05:44:33;;;;;;;26.53;9.27;;;11.00;99.90;;;;;;6246571;23;20400;-82
2021/05/19 05:47:00;;;;;;;23.77;9.70;;;11.20;99.90;;;;;;6246004;22;20502;-82
2021/05/19 05:49:28;;;;;;;22.67;8.13;;;11.30;99.90;;;;;;6245017;23;20883;-82
2021/05/19 05:51:58;;;;;;;38.03;8.70;;;11.40;99.90;;;;;;6256757;23;20478;-81
2021/05/19 05:54:26;;;;;;;19.53;6.37;;;11.30;99.90;;;;;;6246567;23;20399;-81
2021/05/19 05:57:23;;;;;;;27.53;6.83;;;11.40;99.90;;;;;;6246575;23;20478;-82
2021/05/19 05:59:50;;;;;;;22.40;7.07;;;11.20;99.90;;;;;;6222228;23;20721;-82
2021/05/19 06:02:21;;;;;;;23.00;6.47;;;11.10;99.90;;;;;;6246216;23;20442;-82
2021/05/19 06:05:20;;;;;;;22.20;7.43;;;11.10;99.90;;;;;;6254637;23;20913;-82
2021/05/19 06:08:03;;;;;;;23.73;5.70;;;11.40;99.90;;;;;;6230649;22;20747;-83
2021/05/19 06:10:34;;;;;;;21.90;4.90;;;12.00;99.90;;;;;;6245525;23;20394;-82
2021/05/19 06:13:03;;;;;;;24.80;6.27;;;12.20;99.90;;;;;;6256002;23;20461;-82
2021/05/19 06:15:58;;;;;;;23.17;4.60;;;12.60;99.90;;;;;;6246061;23;20403;-82
2021/05/19 06:18:33;;;;;;;24.47;5.50;;;12.90;95.10;;;;;;6241825;22;20407;-83
2021/05/19 06:21:05;;;;;;;38.57;6.10;;;13.00;82.80;;;;;;6254291;23;20472;-82
2021/05/19 06:24:00;;;;;;;26.07;5.70;;;13.30;85.70;;;;;;6255738;23;20966;-81
2021/05/19 06:27:06;;;;;;;29.47;5.43;;;13.80;72.50;;;;;;6240814;23;20414;-82
2021/05/19 06:29:44;;;;;;;31.03;4.30;;;13.80;62.40;;;;;;6240152;23;20421;-83
2021/05/19 06:32:27;;;;;;;28.60;4.70;;;14.20;62.10;;;;;;6245759;23;20973;-83
2021/05/19 06:35:12;;;;;;;28.97;4.53;;;14.40;55.20;;;;;;6254154;23;20411;-83
2021/05/19 06:37:38;;;;;;;36.03;4.07;;;14.40;48.00;;;;;;6245645;23;20403;-83
2021/05/19 06:40:08;;;;;;;30.83;5.07;;;14.80;50.10;;;;;;6245444;23;20879;-81
2021/05/19 06:42:39;;;;;;;32.03;4.90;;;14.30;45.50;;;;;;6245762;23;20438;-83
2021/05/19 06:45:41;;;;;;;30.47;4.83;;;14.30;50.00;;;;;;6255393;22;20403;-83
2021/05/19 06:48:14;;;;;;;32.50;4.70;;;14.70;48.30;;;;;;6255897;23;20417;-83
2021/05/19 06:50:56;;;;;;;29.40;4.23;;;14.60;49.10;;;;;;6254531;23;20918;-84
2021/05/19 06:53:34;;;;;;;28.13;4.10;;;14.80;49.10;;;;;;6256091;23;20403;-83
2021/05/19 06:59:22;;;;;;;;;;;;;;;;;;;;;
2021/05/19 07:01:56;;;;;;;29.70;3.43;;;15.50;38.20;;;;;;6256099;23;20425;-85
2021/05/19 07:04:27;;;;;;;29.20;3.23;;;15.60;38.50;;;;;;6244188;23;20460;-83
2021/05/19 07:06:53;;;;;;;35.10;3.73;;;16.30;39.60;;;;;;6255415;23;20395;-84
2021/05/19 07:09:20;;;;;;;32.73;2.90;;;16.30;33.90;;;;;;6254997;23;20494;-79
2021/05/19 07:12:08;;;;;;;28.77;2.70;;;16.10;27.70;;;;;;6245642;23;20403;-84
2021/05/19 07:15:22;;;;;;;29.40;2.70;;;16.10;30.90;;;;;;6245288;23;20890;-84
2021/05/19 07:17:52;;;;;;;31.10;3.30;;;15.70;31.30;;;;;;6245802;23;20406;-84
2021/05/19 07:20:24;;;;;;;36.93;2.87;;;15.80;33.10;;;;;;6254145;22;20790;-83
2021/05/19 07:22:54;;;;;;;28.60;2.47;;;15.90;31.50;;;;;;6255528;23;21068;-83
2021/05/19 07:25:30;;;;;;;29.87;2.77;;;16.10;31.70;;;;;;6245786;23;20410;-83
2021/05/19 07:28:07;;;;;;;;;;;;;;;;;;;;;
2021/05/19 07:30:47;;;;;;;28.70;2.33;;;16.40;27.60;;;;;;6218715;23;20403;-84
2021/05/19 07:33:19;;;;;;;35.33;3.20;;;16.60;24.20;;;;;;6245422;23;20442;-83
2021/05/19 07:35:57;;;;;;;;;;;;;;;;;;;;;
2021/05/19 07:38:26;;;;;;;30.77;2.57;;;16.70;24.60;;;;;;6245261;23;20399;-83
2021/05/19 07:40:57;;;;;;;33.10;3.20;;;17.00;27.20;;;;;;6245979;23;20445;-84
2021/05/19 07:46:33;;;;;;;28.20;2.03;;;16.70;25.30;;;;;;6246897;23;20422;-84
2021/05/19 07:49:05;;;;;;;28.87;2.30;;;16.40;24.40;;;;;;6244753;23;20398;-83
2021/05/19 07:52:20;;;;;;;;;;;;;;;;;;;;;
2021/05/19 07:55:04;;;;;;;28.87;2.40;;;15.80;26.10;;;;;;6244659;23;20490;-83
2021/05/19 07:57:50;;;;;;;26.43;2.00;;;15.50;25.90;;;;;;6245682;23;20399;-83
2021/05/19 08:00:54;;;;;;;26.00;2.63;;;14.90;25.90;;;;;;6245881;23;20482;-83
2021/05/19 08:03:23;;;;;;;32.10;2.70;;;15.10;30.70;;;;;;6064674;23;20850;-84
2021/05/19 08:05:53;;;;;;;24.07;1.83;;;15.10;29.30;;;;;;6124872;23;20511;-83
2021/05/19 08:08:23;;;;;;;21.33;1.77;;;14.90;30.10;;;;;;6257066;23;20929;-83
2021/05/19 08:14:29;;;;;;;;;;;;;;;;;;;;;
2021/05/19 08:17:23;;;;;;;;;;;;;;;;;;;;;
2021/05/19 08:23:07;;;;;;;21.03;1.33;;;15.00;29.00;;;;;;6246128;23;20445;-83
2021/05/19 08:25:39;;;;;;;23.40;2.00;;;14.70;30.30;;;;;;6257531;23;20403;-83
2021/05/19 08:28:17;;;;;;;19.80;1.50;;;15.10;30.60;;;;;;6247373;23;20402;-84
2021/05/19 08:30:45;;;;;;;21.30;2.07;;;15.00;28.30;;;;;;6257804;23;20406;-83
2021/05/19 08:33:25;;;;;;;;;;;;;;;;;;;;;
2021/05/19 08:35:52;;;;;;;20.70;1.90;;;15.30;27.50;;;;;;6248194;23;20509;-84
2021/05/19 08:38:54;;;;;;;22.13;1.67;;;15.60;27.00;;;;;;6257573;23;20901;-84
2021/05/19 08:41:27;;;;;;;22.40;1.87;;;15.40;26.50;;;;;;6231849;22;20410;-84
2021/05/19 08:43:55;;;;;;;22.33;2.13;;;15.90;29.10;;;;;;6247179;23;20755;-83
2021/05/19 08:46:24;;;;;;;21.50;1.90;;;16.20;26.20;;;;;;6247175;23;20403;-84
2021/05/19 08:49:15;;;;;;;23.27;1.73;;;16.70;23.30;;;;;;6257408;23;20407;-84
2021/05/19 08:52:00;;;;;;;;;;;;;;;;;;;;;
2021/05/19 08:54:48;;;;;;;25.20;2.00;;;16.60;20.30;;;;;;6251562;23;20734;-84
2021/05/19 08:58:03;;;;;;;;;;;;;;;;;;;;;
2021/05/19 09:01:15;;;;;;;;;;;;;;;;;;;;;
2021/05/19 09:04:07;;;;;;;27.70;1.70;;;15.80;22.00;;;;;;6095259;23;20446;-84
2021/05/19 09:07:18;;;;;;;25.17;2.23;;;15.80;19.70;;;;;;6163887;23;20500;-84
2021/05/19 09:09:59;;;;;;;23.40;1.93;;;16.20;21.80;;;;;;6066402;23;20931;-84
2021/05/19 09:12:38;;;;;;;24.37;1.50;;;16.40;18.50;;;;;;6151402;23;20410;-84
2021/05/19 09:15:13;;;;;;;25.10;1.50;;;16.90;21.90;;;;;;6154014;23;20417;-84
2021/05/19 09:18:04;;;;;;;;;;;;;;;;;;;;;
2021/05/19 09:21:07;;;;;;;;;;;;;;;;;;;;;
2021/05/19 09:24:09;;;;;;;27.77;1.77;;;17.00;19.10;;;;;;6163807;23;20456;-84
2021/05/19 09:27:30;;;;;;;29.30;2.17;;;17.30;18.00;;;;;;6236871;23;20413;-85
2021/05/19 09:30:04;;;;;;;28.90;2.10;;;17.80;13.70;;;;;;6247034;23;20421;-84
2021/05/19 09:36:16;;;;;;;30.00;2.03;;;17.70;16.50;;;;;;6236552;23;20403;-82
2021/05/19 09:38:47;;;;;;;33.00;2.00;;;17.90;14.00;;;;;;6246318;23;20453;-83
2021/05/19 09:45:06;;;;;;;;;;;;;;;;;;;;;
2021/05/19 09:47:38;;;;;;;35.80;2.30;;;20.50;5.00;;;;;;6040523;23;20503;-81
2021/05/19 09:50:19;;;;;;;;;;;;;;;;;;;;;
2021/05/19 09:57:05;;;;;;;42.10;2.83;;;19.80;4.40;;;;;;6239177;22;20414;-84
2021/05/19 10:02:54;;;;;;;37.67;2.50;;;19.10;6.40;;;;;;6089485;23;20894;-83
2021/05/19 10:05:56;;;;;;;38.83;2.33;;;20.10;4.60;;;;;;6102257;23;20417;-84
2021/05/19 10:08:22;;;;;;;39.50;3.33;;;21.10;6.00;;;;;;6055673;23;20974;-81
2021/05/19 10:12:05;;;;;;;;;;;;;;;;;;;;;
2021/05/19 10:20:55;;;;;;;45.97;3.27;;;21.20;1.00;;;;;;5985030;23;20432;-84
2021/05/19 10:23:36;;;;;;;46.13;3.43;;;21.70;1.00;;;;;;6093908;23;20530;-83
2021/05/19 10:26:55;;;;;;;43.43;3.63;;;21.50;1.00;;;;;;6094174;23;20447;-84
2021/05/19 10:30:11;;;;;;;48.90;4.13;;;21.90;1.00;;;;;;6017635;23;20840;-83
2021/05/19 10:32:37;;;;;;;47.10;2.90;;;21.70;1.00;;;;;;6255716;22;20421;-83
2021/05/19 10:35:12;;;;;;;48.30;2.90;;;20.30;1.00;;;;;;6244201;23;20405;-83
2021/05/19 10:37:46;;;;;;;41.60;2.20;;;19.30;2.30;;;;;;6255125;22;20804;-83
2021/05/19 11:46:42;;;;;;;44.70;5.60;;;18.60;7.70;;;;;;6049319;23;20708;-85
2021/05/19 11:52:41;;;;;;;36.63;2.33;;;17.60;9.00;;;;;;6018786;23;20453;-83
2021/05/19 11:55:23;;;;;;;32.63;1.90;;;17.30;12.30;;;;;;6038445;23;20419;-81
2021/05/19 12:07:38;;;;;;;33.43;2.30;;;17.20;9.40;;;;;;5646189;25;20471;-88
2021/05/19 12:11:22;;;;;;;;;;;;;;;;;;;;;
2021/05/19 13:22:20;;;;;;;;;;;;;;;;;;;;;
2021/05/19 13:24:47;;;;;;;36.57;1.30;;;19.10;1.00;;;;;;4846321;29;20453;-83
2021/05/19 14:04:58;;;;;;;46.00;3.70;;;23.60;1.00;;;;;;4829667;29;20558;-81
2021/05/19 14:27:22;;;;;;;37.00;3.67;;;16.20;16.60;;;;;;4822365;29;20939;-85
2021/05/19 14:34:57;;;;;;;;;;;;;;;;;;;;;
2021/05/19 15:03:18;;;;;;;;;;;;;;;;;;;;;
2021/05/19 15:06:27;;;;;;;28.53;3.10;;;14.00;35.40;;;;;;4780246;29;20501;-84
2021/05/19 15:15:49;;;;;;;;;;;;;;;;;;;;;
2021/05/19 15:21:41;;;;;;;21.43;2.53;;;13.90;45.00;;;;;;4875892;29;20550;-83
2021/05/19 15:24:25;;;;;;;22.00;2.53;;;14.00;47.60;;;;;;4933678;29;20462;-83
2021/05/19 15:27:26;;;;;;;23.77;2.00;;;13.70;38.60;;;;;;4952970;29;20899;-83
2021/05/19 15:59:02;;;;;;;;;;;;;;;;;;;;;
2021/05/19 16:08:39;;;;;;;28.87;3.30;;;15.60;23.60;;;;;;4927329;28;20465;-84
2021/05/19 16:15:24;;;;;;;28.80;3.57;;;14.90;31.70;;;;;;4981736;28;20504;-83
2021/05/19 16:18:21;;;;;;;26.33;3.23;;;14.30;35.10;;;;;;4954285;28;20582;-84
2021/05/19 16:50:35;;;;;;;;;;;;;;;;;;;;;
2021/05/19 16:53:23;;;;;;;22.53;4.03;;;13.30;67.30;;;;;;4858688;29;20871;-84
2021/05/19 16:56:15;;;;;;;22.20;3.63;;;13.20;75.70;;;;;;4928801;28;20463;-84
2021/05/19 16:58:56;;;;;;;24.00;4.47;;;13.20;72.70;;;;;;4952493;28;20610;-84
2021/05/19 17:04:49;;;;;;;21.87;4.67;;;13.10;76.20;;;;;;4952495;28;20523;-83
2021/05/19 17:07:38;;;;;;;24.77;4.97;;;13.20;86.50;;;;;;4951974;28;20574;-84
2021/05/19 17:13:37;;;;;;;22.20;4.57;;;13.30;93.30;;;;;;4927529;28;20602;-84
2021/05/19 17:16:14;;;;;;;;;;;;;;;;;;;;;
2021/05/19 17:19:12;;;;;;;21.50;4.17;;;13.50;82.50;;;;;;4951344;28;20440;-83
2021/05/19 17:21:48;;;;;;;;;;;;;;;;;;;;;
2021/05/19 17:30:36;;;;;;;21.97;4.30;;;14.90;50.30;;;;;;4804538;29;21023;-84
2021/05/19 17:33:43;;;;;;;;;;;;;;;;;;;;;
2021/05/19 17:36:39;;;;;;;22.20;4.20;;;16.60;34.50;;;;;;4810774;29;20829;-84
2021/05/19 17:45:14;;;;;;;26.97;3.70;;;15.80;29.80;;;;;;4858967;29;20476;-83
2021/05/19 18:05:40;;;;;;;23.83;4.47;;;13.40;61.20;;;;;;4882398;29;20494;-83
2021/05/19 18:08:31;;;;;;;23.40;4.83;;;13.30;70.50;;;;;;4917405;29;20552;-83
2021/05/19 18:11:23;;;;;;;22.47;4.20;;;13.20;74.30;;;;;;4945073;28;20446;-83
2021/05/19 18:20:11;;;;;;;21.57;5.60;;;12.90;96.00;;;;;;4948137;28;20507;-83
2021/05/19 18:22:55;;;;;;;;;;;;;;;;;;;;;
2021/05/19 18:26:12;;;;;;;21.40;5.37;;;12.80;99.90;;;;;;4952662;28;20454;-84
2021/05/19 18:28:41;;;;;;;18.83;4.60;;;12.60;99.90;;;;;;4968257;28;20479;-83
2021/05/19 18:31:21;;;;;;;19.87;6.10;;;12.50;99.90;;;;;;5013237;28;20544;-84
2021/05/19 18:34:07;;;;;;;;;;;;;;;;;;;;;
2021/05/19 18:36:37;;;;;;;19.50;4.67;;;12.40;99.90;;;;;;4992353;28;21036;-83
2021/05/19 18:39:08;;;;;;;17.03;3.30;;;12.30;99.90;;;;;;4998732;28;20492;-83
2021/05/19 18:41:38;;;;;;;16.33;2.73;;;12.20;99.90;;;;;;5012407;28;20449;-84
2021/05/19 18:44:37;;;;;;;15.67;2.70;;;12.10;99.90;;;;;;5013024;28;20457;-84
2021/05/19 18:47:17;;;;;;;;;;;;;;;;;;;;;
2021/05/19 18:50:02;;;;;;;;;;;;;;;;;;;;;
2021/05/19 18:53:01;;;;;;;14.50;2.40;;;12.00;99.90;;;;;;5008761;28;20479;-84
2021/05/19 18:55:48;;;;;;;17.53;3.17;;;12.00;99.90;;;;;;4960223;28;20481;-83
2021/05/19 18:58:42;;;;;;;17.13;3.30;;;11.90;99.90;;;;;;5013032;28;20564;-83
2021/05/19 19:01:24;;;;;;;;;;;;;;;;;;;;;
2021/05/19 19:04:17;;;;;;;14.87;3.43;;;11.90;99.90;;;;;;5005411;28;20949;-83
2021/05/19 19:06:59;;;;;;;;;;;;;;;;;;;;;
2021/05/19 19:09:45;;;;;;;15.50;5.50;;;11.70;99.90;;;;;;4979777;28;20980;-83
2021/05/19 19:12:14;;;;;;;15.23;6.97;;;11.80;99.90;;;;;;5012419;28;20465;-82
2021/05/19 19:14:42;;;;;;;16.20;5.23;;;11.70;99.90;;;;;;5011703;28;21000;-83
2021/05/19 19:17:16;;;;;;;17.53;5.43;;;11.60;99.90;;;;;;5012477;28;20457;-84
2021/05/19 19:19:43;;;;;;;16.73;8.83;;;11.60;99.90;;;;;;5011070;28;20457;-82
2021/05/19 19:22:09;;;;;;;20.70;15.07;;;11.30;99.90;;;;;;5012374;28;20968;-82
2021/05/19 19:24:36;;;;;;;16.50;12.70;;;11.20;99.90;;;;;;5012305;28;20461;-83
2021/05/19 19:27:06;;;;;;;21.87;19.57;;;10.90;99.90;;;;;;5011566;28;20539;-84
2021/05/19 19:29:34;;;;;;;34.57;31.70;;;11.00;99.90;;;;;;5012408;28;20477;-85
2021/05/19 19:32:04;;;;;;;118.90;113.40;;;10.70;99.90;;;;;;5012169;28;20953;-84
2021/05/19 19:34:45;;;;;;;127.17;121.17;;;10.40;99.90;;;;;;5010661;28;20907;-84
2021/05/19 19:37:13;;;;;;;173.40;165.90;;;10.60;99.90;;;;;;5012467;28;20504;-84
2021/05/19 19:39:43;;;;;;;147.57;140.33;;;10.40;99.90;;;;;;5011865;28;20461;-83
2021/05/19 19:42:12;;;;;;;146.57;139.50;;;10.40;99.90;;;;;;5011903;28;20461;-83
2021/05/19 19:44:46;;;;;;;147.87;141.13;;;10.30;99.90;;;;;;5011955;28;20450;-84
2021/05/19 19:47:20;;;;;;;143.27;136.83;;;10.30;99.90;;;;;;5011197;28;20479;-83
2021/05/19 19:49:51;;;;;;;158.10;150.73;;;10.10;99.90;;;;;;5010993;28;20501;-83
2021/05/19 19:52:23;;;;;;;160.40;153.07;;;10.10;99.90;;;;;;5011825;28;20503;-84
2021/05/19 19:54:50;;;;;;;173.70;165.57;;;10.10;99.90;;;;;;5050965;28;20447;-83
2021/05/19 19:57:17;;;;;;;167.40;159.63;;;10.00;99.90;;;;;;5053762;28;20458;-83
2021/05/19 19:59:54;;;;;;;189.77;181.57;;;10.10;99.90;;;;;;5053291;28;20475;-83
2021/05/19 20:02:26;;;;;;;192.93;184.60;;;10.00;99.90;;;;;;5053044;28;20546;-83
2021/05/19 20:04:52;;;;;;;259.20;249.20;;;10.10;99.90;;;;;;5052215;28;20788;-83
2021/05/19 20:07:21;;;;;;;265.07;255.07;;;9.90;99.90;;;;;;5053419;28;20894;-82
2021/05/19 20:09:48;;;;;;;267.20;257.20;;;9.90;99.90;;;;;;5053392;28;20444;-83
2021/05/19 20:12:22;;;;;;;269.20;258.50;;;10.00;99.90;;;;;;5049128;28;20947;-82
2021/05/19 20:14:53;;;;;;;234.00;225.13;;;9.90;99.90;;;;;;5052892;28;20496;-84
2021/05/19 20:17:33;;;;;;;;;;;;;;;;;;;;;
2021/05/19 20:20:09;;;;;;;;;;;;;;;;;;;;;
2021/05/19 20:26:05;;;;;;;220.43;211.57;;;9.80;99.90;;;;;;4925683;28;20454;-82
2021/05/19 20:28:32;;;;;;;229.63;220.30;;;9.80;99.90;;;;;;5033136;28;20487;-82
2021/05/19 20:31:14;;;;;;;235.60;225.50;;;9.80;99.90;;;;;;5047085;28;20451;-83